Terminal Aerodrome Forecast
Issued by NWS

Home | Current Version | Previous Version | Text Only | Print | Product List | Glossary On
Versions: 1 2 3 4 5 6 7 8 9 10 11 12 13 14 15 16 17 18 19 20 21
000
FTUS46 KSEW 291734
TAFHQM
TAF
KHQM 291734Z 2918/3018 VRB04KT P6SM BKN022
     FM292100 20006KT P6SM SCT030
     FM300600 26006KT P6SM OVC015=

USA.gov is the U.S. government's official web portal to all federal, state and local government web resources and services.